Aviation Digital Data Service (ADDS)

Output produced by METARs form (0948 UTC 19 November 2018)
found at http://www.aviationweather.gov/metar/data/
 
RJFR 190900Z 34008KT 310V020 9999 FEW030 SCT060 14/06 Q1019
TAF RJFR 190510Z 1906/2012 36014KT 9999 FEW030 BKN050